createdAt,value
2017-10-02T00:01:27.256Z,64.14
2017-10-02T00:03:55.578Z,64.80
2017-10-02T00:06:23.938Z,64.82
2017-10-02T00:08:52.298Z,65.50
2017-10-02T00:11:20.631Z,64.85
2017-10-02T00:13:48.993Z,64.60
2017-10-02T00:16:17.319Z,64.31
2017-10-02T00:18:45.654Z,64.99
2017-10-02T00:21:14.126Z,64.66
2017-10-02T00:23:42.467Z,64.66
2017-10-02T00:26:10.799Z,64.68
2017-10-02T00:28:39.135Z,65.11
2017-10-02T00:31:07.478Z,63.78
2017-10-02T00:33:35.826Z,63.08
2017-10-02T00:36:04.187Z,64.33
2017-10-02T00:38:32.528Z,64.33
2017-10-02T00:41:00.854Z,63.52
2017-10-02T00:43:29.185Z,63.68
2017-10-02T00:45:57.531Z,63.24
2017-10-02T00:48:25.863Z,63.06
2017-10-02T00:50:54.198Z,62.08
2017-10-02T00:53:22.530Z,61.12
2017-10-02T00:55:50.887Z,61.61
2017-10-02T00:58:19.217Z,62.41
2017-10-02T01:00:47.558Z,61.94
2017-10-02T01:03:15.878Z,62.09
2017-10-02T01:05:44.351Z,62.14
2017-10-02T01:08:12.690Z,62.10
2017-10-02T01:10:41.029Z,62.86
2017-10-02T01:13:09.366Z,63.29
2017-10-02T01:15:37.706Z,63.43
2017-10-02T01:18:06.042Z,63.85
2017-10-02T01:20:34.378Z,63.13
2017-10-02T01:23:02.706Z,63.90
2017-10-02T01:25:31.047Z,61.63
2017-10-02T01:27:59.387Z,63.15
2017-10-02T01:30:27.720Z,63.32
2017-10-02T01:32:56.091Z,62.99
2017-10-02T01:35:24.418Z,63.32
2017-10-02T01:37:52.755Z,63.62
2017-10-02T01:40:21.086Z,62.53
2017-10-02T01:42:49.449Z,62.03
2017-10-02T01:45:17.819Z,62.42
2017-10-02T01:47:46.175Z,62.40
2017-10-02T01:50:14.534Z,62.64
2017-10-02T01:52:42.870Z,62.71
2017-10-02T01:55:11.199Z,62.50
2017-10-02T01:57:39.531Z,62.64
2017-10-02T02:00:07.866Z,63.56
2017-10-02T02:02:36.198Z,64.16
2017-10-02T02:05:04.567Z,62.96
2017-10-02T02:07:32.898Z,62.38
2017-10-02T02:10:01.254Z,62.66
2017-10-02T02:12:29.592Z,62.57
2017-10-02T02:14:57.922Z,63.63
2017-10-02T02:17:26.254Z,62.93
2017-10-02T02:19:54.590Z,62.26
2017-10-02T02:22:22.927Z,62.89
2017-10-02T02:24:51.270Z,62.95
2017-10-02T02:27:19.606Z,62.75
2017-10-02T02:29:48.072Z,62.64
2017-10-02T02:32:16.425Z,62.72
2017-10-02T02:34:44.752Z,62.55
2017-10-02T02:37:13.088Z,61.39
2017-10-02T02:39:41.414Z,61.58
2017-10-02T02:42:09.751Z,61.16
2017-10-02T02:44:38.082Z,61.42
2017-10-02T02:47:06.443Z,60.16
2017-10-02T02:49:34.773Z,59.59
2017-10-02T02:52:03.106Z,60.58
2017-10-02T02:54:31.442Z,60.55
2017-10-02T02:56:59.779Z,60.15
2017-10-02T02:59:28.107Z,60.89
2017-10-02T03:01:56.479Z,60.73
2017-10-02T03:04:24.810Z,61.53
2017-10-02T03:06:53.142Z,61.97
2017-10-02T03:09:21.509Z,62.45
2017-10-02T03:11:49.849Z,61.97
2017-10-02T03:14:18.186Z,62.21
2017-10-02T03:16:46.520Z,61.70
2017-10-02T03:19:14.855Z,62.87
2017-10-02T03:21:43.187Z,63.28
2017-10-02T03:24:11.699Z,63.43
2017-10-02T03:26:40.040Z,63.33
2017-10-02T03:29:08.370Z,64.35
2017-10-02T03:31:36.706Z,64.60
2017-10-02T03:34:05.035Z,64.85
2017-10-02T03:36:33.500Z,65.16
2017-10-02T03:39:01.839Z,65.39
2017-10-02T03:41:30.165Z,65.84
2017-10-02T03:43:58.498Z,65.56
2017-10-02T03:46:26.826Z,66.61
2017-10-02T03:48:55.158Z,66.81
2017-10-02T03:51:23.490Z,67.82
2017-10-02T03:53:51.820Z,69.65
2017-10-02T03:56:20.626Z,70.46
2017-10-02T03:58:48.967Z,71.23
2017-10-02T04:01:17.294Z,72.01
2017-10-02T04:03:45.626Z,73.17
2017-10-02T04:06:13.995Z,74.01
2017-10-02T04:08:42.325Z,75.76
2017-10-02T04:11:10.663Z,77.02
2017-10-02T04:13:38.997Z,79.23
2017-10-02T04:16:07.340Z,79.60
2017-10-02T04:18:35.702Z,81.22
2017-10-02T04:21:04.046Z,81.19
2017-10-02T04:23:32.386Z,82.22
2017-10-02T04:26:00.745Z,82.32
2017-10-02T04:28:29.071Z,82.84
2017-10-02T04:30:57.405Z,82.92
2017-10-02T04:33:25.737Z,82.82
2017-10-02T04:35:54.067Z,82.90
2017-10-02T04:38:22.402Z,82.70
2017-10-02T04:40:50.730Z,82.86
2017-10-02T04:43:19.103Z,83.78
2017-10-02T04:45:47.434Z,83.33
2017-10-02T04:48:15.770Z,83.80
2017-10-02T04:50:44.110Z,82.30
2017-10-02T04:53:12.521Z,84.24
2017-10-02T04:55:40.906Z,84.88
2017-10-02T04:58:09.247Z,85.34
2017-10-02T05:00:37.586Z,83.53
2017-10-02T05:03:05.940Z,83.09
2017-10-02T05:05:34.276Z,83.48
2017-10-02T05:08:02.811Z,82.94
2017-10-02T05:10:31.146Z,82.40
2017-10-02T05:12:59.470Z,81.65
2017-10-02T05:15:27.815Z,82.71
2017-10-02T05:17:56.154Z,83.37
2017-10-02T05:20:24.486Z,83.60
2017-10-02T05:22:52.834Z,84.41
2017-10-02T05:25:21.166Z,84.69
2017-10-02T05:27:49.544Z,84.85
2017-10-02T05:30:17.877Z,83.33
2017-10-02T05:32:46.241Z,81.99
2017-10-02T05:35:14.726Z,82.93
2017-10-02T05:37:43.061Z,83.44
2017-10-02T05:40:11.395Z,83.27
2017-10-02T05:42:39.775Z,82.17
2017-10-02T05:45:10.823Z,83.21
2017-10-02T05:47:39.155Z,81.98
2017-10-02T05:50:07.487Z,82.64
2017-10-02T05:52:35.865Z,83.05
2017-10-02T05:55:04.194Z,82.68
2017-10-02T05:57:32.570Z,84.07
2017-10-02T06:00:00.902Z,84.37
2017-10-02T06:02:29.234Z,82.47
2017-10-02T06:04:57.707Z,82.21
2017-10-02T06:07:26.038Z,81.47
2017-10-02T06:09:54.376Z,82.85
2017-10-02T06:12:22.738Z,83.48
2017-10-02T06:14:51.070Z,81.61
2017-10-02T06:17:19.402Z,82.69
2017-10-02T06:19:47.763Z,80.86
2017-10-02T06:22:16.102Z,80.55
2017-10-02T06:24:44.498Z,81.05
2017-10-02T06:27:12.830Z,80.86
2017-10-02T06:29:41.169Z,80.56
2017-10-02T06:32:09.523Z,81.67
2017-10-02T06:34:37.890Z,81.56
2017-10-02T06:37:06.214Z,81.88
2017-10-02T06:39:34.577Z,81.76
2017-10-02T06:42:02.910Z,81.53
2017-10-02T06:44:31.274Z,82.08
2017-10-02T06:46:59.646Z,83.04
2017-10-02T06:49:28.117Z,81.36
2017-10-02T06:51:56.450Z,83.66
2017-10-02T06:54:24.782Z,83.27
2017-10-02T06:56:53.145Z,82.71
2017-10-02T06:59:21.486Z,83.08
2017-10-02T07:01:49.847Z,83.86
2017-10-02T07:04:18.198Z,84.24
2017-10-02T07:06:46.539Z,82.63
2017-10-02T07:09:14.893Z,84.80
2017-10-02T07:11:43.258Z,83.98
2017-10-02T07:14:11.629Z,84.96
2017-10-02T07:16:39.962Z,84.22
2017-10-02T07:19:08.304Z,83.74
2017-10-02T07:21:36.642Z,80.46
2017-10-02T07:24:04.974Z,81.97
2017-10-02T07:26:33.334Z,80.99
2017-10-02T07:29:01.683Z,79.29
2017-10-02T07:31:30.095Z,86.28
2017-10-02T07:33:58.427Z,86.84
2017-10-02T07:36:26.770Z,85.85
2017-10-02T07:38:55.102Z,86.45
2017-10-02T07:41:23.562Z,87.12
2017-10-02T07:43:51.898Z,86.61
2017-10-02T07:46:20.229Z,87.02
2017-10-02T07:48:48.595Z,85.68
2017-10-02T07:51:16.922Z,85.62
2017-10-02T07:53:45.289Z,84.48
2017-10-02T07:56:13.656Z,84.54
2017-10-02T07:58:41.986Z,85.15
2017-10-02T08:01:10.364Z,87.03
2017-10-02T08:03:38.691Z,84.73
2017-10-02T08:06:07.020Z,86.58
2017-10-02T08:08:35.383Z,86.82
2017-10-02T08:11:03.717Z,86.24
2017-10-02T08:13:32.189Z,84.67
2017-10-02T08:16:00.515Z,84.92
2017-10-02T08:18:28.851Z,86.84
2017-10-02T08:20:57.194Z,87.51
2017-10-02T08:23:25.559Z,85.67
2017-10-02T08:25:53.926Z,84.78
2017-10-02T08:28:22.263Z,85.27
2017-10-02T08:30:50.622Z,86.13
2017-10-02T08:33:18.945Z,84.81
2017-10-02T08:35:47.310Z,85.83
2017-10-02T08:38:15.646Z,85.52
2017-10-02T08:40:44.015Z,85.47
2017-10-02T08:43:12.347Z,85.51
2017-10-02T08:45:40.707Z,84.96
2017-10-02T08:48:09.046Z,86.27
2017-10-02T08:50:37.422Z,84.29
2017-10-02T08:53:05.752Z,85.22
2017-10-02T08:55:34.145Z,83.42
2017-10-02T08:58:02.792Z,85.88
2017-10-02T09:00:31.129Z,85.05
2017-10-02T09:02:59.453Z,84.43
2017-10-02T09:05:27.782Z,86.18
2017-10-02T09:07:56.143Z,85.96
2017-10-02T09:10:24.475Z,87.17
2017-10-02T09:12:52.938Z,85.84
2017-10-02T09:15:21.275Z,85.94
2017-10-02T09:17:49.606Z,87.16
2017-10-02T09:20:17.940Z,86.63
2017-10-02T09:22:46.274Z,88.55
2017-10-02T09:25:14.634Z,87.83
2017-10-02T09:27:42.968Z,86.02
2017-10-02T09:30:11.429Z,86.60
2017-10-02T09:32:39.777Z,87.10
2017-10-02T09:35:08.110Z,87.44
2017-10-02T09:37:36.478Z,88.94
2017-10-02T09:40:04.807Z,88.08
2017-10-02T09:42:33.275Z,87.67
2017-10-02T09:45:01.798Z,88.53
2017-10-02T09:47:30.135Z,89.16
2017-10-02T09:49:58.494Z,87.84
2017-10-02T09:52:26.837Z,87.22
2017-10-02T09:54:55.213Z,89.09
2017-10-02T09:57:23.546Z,88.43
2017-10-02T09:59:51.877Z,88.10
2017-10-02T10:02:20.354Z,87.19
2017-10-02T10:04:48.678Z,86.30
2017-10-02T10:07:17.031Z,88.49
2017-10-02T10:09:45.361Z,86.96
2017-10-02T10:12:13.702Z,86.46
2017-10-02T10:14:42.066Z,88.85
2017-10-02T10:17:10.394Z,88.11
2017-10-02T10:19:38.723Z,87.85
2017-10-02T10:22:07.053Z,88.60
2017-10-02T10:24:35.694Z,86.40
2017-10-02T10:27:04.103Z,86.02
2017-10-02T10:29:32.430Z,86.37
2017-10-02T10:32:00.779Z,86.42
2017-10-02T10:34:29.097Z,87.03
2017-10-02T10:36:57.481Z,86.74
2017-10-02T10:39:25.813Z,87.40
2017-10-02T10:41:54.147Z,89.05
2017-10-02T10:44:22.953Z,87.58
2017-10-02T10:46:51.319Z,87.74
2017-10-02T10:49:19.677Z,87.22
2017-10-02T10:51:48.049Z,88.32
2017-10-02T10:54:16.399Z,87.29
2017-10-02T10:56:44.764Z,88.73
2017-10-02T10:59:13.125Z,87.40
2017-10-02T11:01:41.502Z,86.23
2017-10-02T11:04:09.883Z,87.17
2017-10-02T11:06:38.621Z,86.69
2017-10-02T11:09:06.962Z,87.16
2017-10-02T11:11:35.419Z,86.77
2017-10-02T11:14:03.757Z,86.80
2017-10-02T11:16:32.096Z,87.25
2017-10-02T11:19:00.434Z,85.24
2017-10-02T11:21:28.798Z,85.63
2017-10-02T11:23:57.179Z,85.16
2017-10-02T11:26:25.530Z,86.77
2017-10-02T11:28:53.897Z,86.14
2017-10-02T11:31:22.241Z,86.05
2017-10-02T11:33:50.686Z,85.61
2017-10-02T11:36:19.018Z,86.51
2017-10-02T11:38:47.443Z,86.51
2017-10-02T11:41:15.770Z,84.47
2017-10-02T11:43:44.102Z,84.74
2017-10-02T11:46:12.443Z,83.66
2017-10-02T11:48:40.802Z,83.79
2017-10-02T11:51:09.138Z,82.31
2017-10-02T11:53:37.510Z,82.66
2017-10-02T11:56:05.867Z,80.92
2017-10-02T11:58:34.203Z,80.20
2017-10-02T12:01:02.571Z,80.52
2017-10-02T12:03:30.930Z,79.82
2017-10-02T12:05:59.293Z,80.54
2017-10-02T12:08:27.619Z,81.03
2017-10-02T12:10:55.977Z,82.33
2017-10-02T12:13:24.306Z,83.67
2017-10-02T12:15:52.665Z,83.16
2017-10-02T12:18:21.061Z,83.68
2017-10-02T12:20:49.738Z,81.91
2017-10-02T12:23:18.067Z,82.45
2017-10-02T12:25:46.395Z,82.32
2017-10-02T12:28:14.854Z,81.53
2017-10-02T12:30:43.186Z,80.67
2017-10-02T12:33:11.517Z,79.90
2017-10-02T12:35:39.850Z,77.31
2017-10-02T12:38:08.186Z,75.84
2017-10-02T12:40:36.561Z,75.25
2017-10-02T12:43:04.893Z,76.37
2017-10-02T12:45:33.269Z,76.48
2017-10-02T12:48:01.594Z,77.84
2017-10-02T12:50:29.927Z,76.98
2017-10-02T12:52:58.262Z,75.73
2017-10-02T12:55:26.591Z,73.34
2017-10-02T12:57:54.924Z,73.30
2017-10-02T13:00:23.255Z,72.29
2017-10-02T13:02:51.623Z,72.23
2017-10-02T13:05:19.955Z,71.45
2017-10-02T13:07:48.318Z,71.16
2017-10-02T13:10:16.653Z,71.06
2017-10-02T13:12:44.994Z,72.61
2017-10-02T13:15:13.570Z,72.07
2017-10-02T13:17:41.938Z,72.81
2017-10-02T13:20:10.406Z,73.00
2017-10-02T13:22:38.751Z,72.91
2017-10-02T13:25:07.091Z,72.72
2017-10-02T13:27:35.498Z,72.09
2017-10-02T13:30:03.840Z,72.98
2017-10-02T13:32:32.370Z,72.05
2017-10-02T13:35:00.718Z,73.01
2017-10-02T13:37:29.085Z,74.15
2017-10-02T13:39:57.453Z,72.93
2017-10-02T13:42:25.802Z,74.68
2017-10-02T13:44:54.166Z,73.88
2017-10-02T13:47:22.510Z,73.51
2017-10-02T13:49:50.985Z,70.70
2017-10-02T13:52:19.326Z,72.01
2017-10-02T13:54:47.662Z,71.42
2017-10-02T13:57:16.034Z,72.18
2017-10-02T13:59:44.378Z,70.95
2017-10-02T14:02:12.714Z,73.16
2017-10-02T14:04:41.054Z,71.78
2017-10-02T14:07:09.390Z,72.96
2017-10-02T14:09:37.762Z,73.19
2017-10-02T14:12:06.108Z,71.88
2017-10-02T14:14:34.538Z,72.31
2017-10-02T14:17:02.880Z,71.98
2017-10-02T14:19:31.242Z,72.09
2017-10-02T14:21:59.583Z,72.02
2017-10-02T14:24:27.931Z,71.81
2017-10-02T14:26:57.126Z,71.24
2017-10-02T14:29:25.462Z,71.98
2017-10-02T14:31:53.935Z,71.76
2017-10-02T14:34:22.274Z,70.60
2017-10-02T14:36:50.619Z,70.99
2017-10-02T14:39:18.958Z,70.79
2017-10-02T14:41:47.298Z,70.85
2017-10-02T14:44:16.445Z,71.87
2017-10-02T14:46:44.784Z,72.91
2017-10-02T14:49:13.163Z,74.35
2017-10-02T14:51:41.507Z,72.67
2017-10-02T14:54:09.846Z,73.04
2017-10-02T14:56:38.199Z,73.31
2017-10-02T14:59:06.534Z,73.11
2017-10-02T15:01:35.006Z,72.85
2017-10-02T15:04:03.354Z,73.50
2017-10-02T15:06:31.694Z,71.59
2017-10-02T15:09:00.067Z,72.46
2017-10-02T15:11:28.408Z,73.43
2017-10-02T15:13:56.877Z,73.40
2017-10-02T15:16:25.217Z,73.89
2017-10-02T15:18:53.554Z,75.67
2017-10-02T15:21:21.896Z,76.28
2017-10-02T15:23:50.225Z,76.81
2017-10-02T15:26:18.607Z,76.83
2017-10-02T15:28:46.956Z,76.23
2017-10-02T15:31:15.957Z,75.33
2017-10-02T15:33:44.286Z,74.99
2017-10-02T15:36:12.659Z,74.96
2017-10-02T15:38:40.990Z,74.61
2017-10-02T15:41:09.577Z,73.57
2017-10-02T15:43:37.946Z,73.65
2017-10-02T15:46:06.295Z,73.99
2017-10-02T15:48:35.374Z,72.81
2017-10-02T15:51:06.942Z,71.72
2017-10-02T15:53:49.261Z,71.88
2017-10-02T15:56:18.974Z,71.72
2017-10-02T15:58:47.732Z,70.20
2017-10-02T16:01:16.520Z,70.83
2017-10-02T16:03:46.347Z,70.31
2017-10-02T16:06:14.908Z,70.43
2017-10-02T16:08:43.250Z,71.02
2017-10-02T16:11:12.524Z,71.15
2017-10-02T16:13:41.769Z,71.63
2017-10-02T16:16:11.062Z,72.23
2017-10-02T16:18:41.085Z,72.19
2017-10-02T16:21:11.175Z,71.68
2017-10-02T16:23:39.914Z,71.47
2017-10-02T16:26:08.704Z,71.48
2017-10-02T16:28:37.163Z,71.78
2017-10-02T16:31:05.782Z,72.00
2017-10-02T16:33:35.031Z,71.71
2017-10-02T16:36:03.435Z,72.44
2017-10-02T16:38:31.778Z,72.23
2017-10-02T16:41:00.164Z,72.79
2017-10-02T16:43:28.494Z,72.48
2017-10-02T16:45:56.830Z,72.32
2017-10-02T16:48:25.165Z,71.37
2017-10-02T16:50:53.776Z,71.70
2017-10-02T16:53:22.158Z,71.13
2017-10-02T16:55:50.498Z,71.70
2017-10-02T16:58:18.863Z,71.27
2017-10-02T17:00:47.211Z,71.89
2017-10-02T17:03:15.547Z,72.39
2017-10-02T17:05:44.030Z,71.47
2017-10-02T17:08:12.413Z,70.23
2017-10-02T17:10:40.897Z,72.26
2017-10-02T17:13:09.241Z,71.96
2017-10-02T17:15:37.618Z,70.36
2017-10-02T17:18:05.971Z,72.00
2017-10-02T17:20:37.543Z,71.22
2017-10-02T17:23:05.879Z,71.61
2017-10-02T17:25:34.242Z,71.43
2017-10-02T17:28:02.601Z,71.78
2017-10-02T17:30:30.941Z,71.44
2017-10-02T17:32:59.279Z,72.16
2017-10-02T17:35:27.832Z,71.70
2017-10-02T17:37:56.220Z,72.36
2017-10-02T17:40:24.587Z,72.14
2017-10-02T17:42:55.018Z,71.83
2017-10-02T17:45:23.436Z,72.12
2017-10-02T17:47:51.771Z,73.52
2017-10-02T17:50:20.115Z,72.03
2017-10-02T17:52:48.765Z,72.17
2017-10-02T17:55:17.191Z,72.39
2017-10-02T17:57:46.249Z,70.98
2017-10-02T18:00:15.470Z,72.21
2017-10-02T18:02:44.366Z,72.91
2017-10-02T18:05:12.798Z,73.65
2017-10-02T18:07:41.441Z,73.87
2017-10-02T18:10:09.991Z,71.55
2017-10-02T18:12:38.435Z,71.86
2017-10-02T18:15:07.104Z,72.60
2017-10-02T18:17:35.482Z,72.81
2017-10-02T18:20:03.988Z,72.16
2017-10-02T18:22:32.950Z,72.20
2017-10-02T18:25:01.812Z,72.70
2017-10-02T18:27:30.218Z,72.15
2017-10-02T18:29:58.581Z,71.68
2017-10-02T18:32:26.986Z,72.42
2017-10-02T18:34:55.551Z,72.55
2017-10-02T18:37:23.943Z,73.21
2017-10-02T18:39:52.288Z,72.74
2017-10-02T18:42:20.667Z,73.19
2017-10-02T18:44:49.069Z,72.71
2017-10-02T18:47:17.523Z,73.63
2017-10-02T18:49:47.334Z,73.35
2017-10-02T18:52:15.734Z,73.92
2017-10-02T18:54:44.074Z,72.85
2017-10-02T18:57:12.466Z,72.67
2017-10-02T18:59:40.830Z,72.96
2017-10-02T19:02:09.209Z,73.59
2017-10-02T19:04:37.580Z,74.13
2017-10-02T19:07:05.988Z,74.50
2017-10-02T19:09:34.364Z,74.38
2017-10-02T19:12:02.854Z,74.85
2017-10-02T19:14:31.912Z,74.84
2017-10-02T19:17:00.274Z,75.59
2017-10-02T19:19:28.632Z,74.11
2017-10-02T19:21:57.208Z,74.50
2017-10-02T19:24:25.571Z,75.50
2017-10-02T19:26:53.952Z,74.93
2017-10-02T19:29:22.298Z,74.96
2017-10-02T19:32:07.715Z,74.87
2017-10-02T19:34:41.037Z,74.66
2017-10-02T19:37:31.146Z,74.29
2017-10-02T19:40:03.394Z,74.79
2017-10-02T19:42:45.646Z,74.81
2017-10-02T19:45:18.858Z,74.67
2017-10-02T19:48:25.853Z,73.48
2017-10-02T19:51:00.067Z,75.04
2017-10-02T19:53:30.916Z,75.04
2017-10-02T19:56:07.990Z,73.98
2017-10-02T19:58:37.367Z,74.93
2017-10-02T20:01:05.762Z,76.21
2017-10-02T20:03:34.124Z,74.26
2017-10-02T20:06:02.543Z,75.38
2017-10-02T20:08:30.912Z,74.76
2017-10-02T20:10:59.304Z,75.08
2017-10-02T20:13:27.835Z,74.40
2017-10-02T20:16:02.731Z,74.50
2017-10-02T20:18:31.110Z,74.71
2017-10-02T20:20:59.497Z,74.95
2017-10-02T20:23:27.942Z,75.53
2017-10-02T20:25:56.353Z,76.39
2017-10-02T20:28:24.795Z,75.68
2017-10-02T20:30:53.175Z,75.52
2017-10-02T20:33:21.588Z,75.67
2017-10-02T20:35:49.959Z,74.50
2017-10-02T20:38:18.343Z,76.15
2017-10-02T20:40:46.765Z,77.00
2017-10-02T20:43:15.133Z,77.48
2017-10-02T20:45:43.502Z,77.00
2017-10-02T20:48:11.903Z,78.34
2017-10-02T20:50:40.293Z,78.15
2017-10-02T20:53:08.715Z,79.19
2017-10-02T20:55:37.250Z,79.67
2017-10-02T20:58:05.650Z,79.72
2017-10-02T21:00:34.011Z,81.30
2017-10-02T21:03:02.456Z,80.96
2017-10-02T21:05:30.818Z,80.22
2017-10-02T21:07:59.312Z,80.67
2017-10-02T21:10:27.695Z,81.89
2017-10-02T21:12:56.061Z,82.12
2017-10-02T21:15:24.423Z,84.69
2017-10-02T21:17:52.815Z,84.90
2017-10-02T21:20:21.187Z,82.93
2017-10-02T21:22:49.593Z,82.59
2017-10-02T21:25:17.946Z,83.69
2017-10-02T21:27:46.334Z,83.09
2017-10-02T21:30:14.739Z,83.44
2017-10-02T21:32:43.110Z,83.87
2017-10-02T21:35:11.471Z,83.72
2017-10-02T21:37:39.840Z,82.82
2017-10-02T21:40:08.197Z,81.92
2017-10-02T21:42:36.603Z,82.41
2017-10-02T21:45:04.982Z,83.11
2017-10-02T21:47:33.389Z,82.86
2017-10-02T21:50:01.855Z,84.87
2017-10-02T21:52:30.235Z,84.31
2017-10-02T21:54:58.622Z,84.68
2017-10-02T21:57:27.121Z,84.47
2017-10-02T21:59:56.165Z,84.25
2017-10-02T22:02:24.519Z,83.15
2017-10-02T22:04:52.924Z,82.35
2017-10-02T22:07:21.296Z,82.84
2017-10-02T22:09:49.776Z,82.78
2017-10-02T22:12:18.245Z,84.26
2017-10-02T22:14:46.607Z,83.39
2017-10-02T22:17:14.967Z,84.35
2017-10-02T22:19:43.334Z,84.26
2017-10-02T22:22:11.841Z,85.04
2017-10-02T22:24:40.201Z,85.69
2017-10-02T22:27:08.586Z,85.53
2017-10-02T22:29:36.955Z,86.17
2017-10-02T22:32:05.339Z,86.19
2017-10-02T22:34:33.831Z,86.53
2017-10-02T22:37:02.198Z,85.93
2017-10-02T22:39:30.559Z,83.60
2017-10-02T22:41:58.919Z,84.73
2017-10-02T22:44:27.413Z,84.94
2017-10-02T22:46:55.768Z,86.67
2017-10-02T22:49:24.149Z,86.61
2017-10-02T22:51:52.504Z,85.48
2017-10-02T22:54:20.906Z,85.18
2017-10-02T22:56:49.302Z,85.04
2017-10-02T22:59:17.669Z,84.33
2017-10-02T23:01:46.030Z,84.05
2017-10-02T23:04:14.413Z,85.31
2017-10-02T23:06:42.771Z,84.87
2017-10-02T23:09:11.289Z,81.95
2017-10-02T23:11:39.642Z,84.11
2017-10-02T23:14:08.007Z,82.61
2017-10-02T23:16:36.357Z,83.83
2017-10-02T23:19:04.704Z,83.99
2017-10-02T23:21:33.080Z,83.56
2017-10-02T23:24:01.435Z,82.72
2017-10-02T23:26:29.820Z,84.70
2017-10-02T23:28:58.180Z,81.30
2017-10-02T23:31:26.568Z,81.83
2017-10-02T23:33:54.927Z,79.15
2017-10-02T23:36:23.285Z,78.46
2017-10-02T23:38:51.655Z,81.11
2017-10-02T23:41:20.011Z,84.24
2017-10-02T23:43:48.499Z,83.19
2017-10-02T23:46:16.851Z,82.93
2017-10-02T23:48:45.203Z,82.89
2017-10-02T23:51:13.567Z,82.79
2017-10-02T23:53:41.969Z,82.62
2017-10-02T23:56:10.316Z,82.49
2017-10-02T23:58:38.700Z,83.80
